sensor_id;sensor_type;location;lat;lon;timestamp;temperature;humidity
21559;DHT22;10940;48.890;8.240;2022-12-07T00:01:08;4.30;99.90
21559;DHT22;10940;48.890;8.240;2022-12-07T00:03:35;4.20;99.90
21559;DHT22;10940;48.890;8.240;2022-12-07T00:06:01;4.20;99.90
21559;DHT22;10940;48.890;8.240;2022-12-07T00:08:27;4.20;99.90
21559;DHT22;10940;48.890;8.240;2022-12-07T00:10:53;4.20;99.90
21559;DHT22;10940;48.890;8.240;2022-12-07T00:13:19;4.20;99.90
21559;DHT22;10940;48.890;8.240;2022-12-07T00:15:44;4.20;99.90
21559;DHT22;10940;48.890;8.240;2022-12-07T00:18:10;4.30;99.90
21559;DHT22;10940;48.890;8.240;2022-12-07T00:20:36;4.30;99.90
21559;DHT22;10940;48.890;8.240;2022-12-07T00:23:05;4.20;99.90
21559;DHT22;10940;48.890;8.240;2022-12-07T00:25:31;4.30;99.90
21559;DHT22;10940;48.890;8.240;2022-12-07T00:27:56;4.30;99.90
21559;DHT22;10940;48.890;8.240;2022-12-07T00:30:23;4.30;99.90
21559;DHT22;10940;48.890;8.240;2022-12-07T00:32:50;4.20;99.90
21559;DHT22;10940;48.890;8.240;2022-12-07T00:35:15;4.20;99.90
21559;DHT22;10940;48.890;8.240;2022-12-07T00:37:41;4.20;99.90
21559;DHT22;10940;48.890;8.240;2022-12-07T00:40:08;4.20;99.90
21559;DHT22;10940;48.890;8.240;2022-12-07T00:42:34;4.20;99.90
21559;DHT22;10940;48.890;8.240;2022-12-07T00:44:59;4.20;99.90
21559;DHT22;10940;48.890;8.240;2022-12-07T00:47:25;4.20;99.90
21559;DHT22;10940;48.890;8.240;2022-12-07T00:49:51;4.20;99.90
21559;DHT22;10940;48.890;8.240;2022-12-07T00:52:17;4.20;99.90
21559;DHT22;10940;48.890;8.240;2022-12-07T00:54:43;4.20;99.90
21559;DHT22;10940;48.890;8.240;2022-12-07T00:57:09;4.20;99.90
21559;DHT22;10940;48.890;8.240;2022-12-07T00:59:34;4.20;99.90
21559;DHT22;10940;48.890;8.240;2022-12-07T01:02:00;4.30;99.90
21559;DHT22;10940;48.890;8.240;2022-12-07T01:04:26;4.30;99.90
21559;DHT22;10940;48.890;8.240;2022-12-07T01:06:51;4.30;99.90
21559;DHT22;10940;48.890;8.240;2022-12-07T01:09:17;4.30;99.90
21559;DHT22;10940;48.890;8.240;2022-12-07T01:11:42;4.20;99.90
21559;DHT22;10940;48.890;8.240;2022-12-07T01:14:08;4.30;99.90
21559;DHT22;10940;48.890;8.240;2022-12-07T01:16:34;4.20;99.90
21559;DHT22;10940;48.890;8.240;2022-12-07T01:19:01;4.10;99.90
21559;DHT22;10940;48.890;8.240;2022-12-07T01:21:31;4.20;99.90
21559;DHT22;10940;48.890;8.240;2022-12-07T01:24:02;4.20;99.90
21559;DHT22;10940;48.890;8.240;2022-12-07T01:26:27;4.20;99.90
21559;DHT22;10940;48.890;8.240;2022-12-07T01:28:54;4.20;99.90
21559;DHT22;10940;48.890;8.240;2022-12-07T01:31:22;4.20;99.90
21559;DHT22;10940;48.890;8.240;2022-12-07T01:33:51;4.20;99.90
21559;DHT22;10940;48.890;8.240;2022-12-07T01:36:21;4.20;99.90
21559;DHT22;10940;48.890;8.240;2022-12-07T01:38:49;4.20;99.90
21559;DHT22;10940;48.890;8.240;2022-12-07T01:41:17;4.20;99.90
21559;DHT22;10940;48.890;8.240;2022-12-07T01:46:51;4.30;99.90
21559;DHT22;10940;48.890;8.240;2022-12-07T01:51:58;4.10;99.90
21559;DHT22;10940;48.890;8.240;2022-12-07T01:54:26;4.10;99.90
21559;DHT22;10940;48.890;8.240;2022-12-07T01:56:54;4.10;99.90
21559;DHT22;10940;48.890;8.240;2022-12-07T01:59:23;4.10;99.90
21559;DHT22;10940;48.890;8.240;2022-12-07T02:01:50;4.10;99.90
21559;DHT22;10940;48.890;8.240;2022-12-07T02:04:16;4.10;99.90
21559;DHT22;10940;48.890;8.240;2022-12-07T02:06:43;4.10;99.90
21559;DHT22;10940;48.890;8.240;2022-12-07T02:09:10;4.10;99.90
21559;DHT22;10940;48.890;8.240;2022-12-07T02:11:36;4.10;99.90
21559;DHT22;10940;48.890;8.240;2022-12-07T02:14:02;4.20;99.90
21559;DHT22;10940;48.890;8.240;2022-12-07T02:25:08;4.20;99.90
21559;DHT22;10940;48.890;8.240;2022-12-07T02:27:45;4.20;99.90
21559;DHT22;10940;48.890;8.240;2022-12-07T02:30:14;4.20;99.90
21559;DHT22;10940;48.890;8.240;2022-12-07T02:35:30;4.20;99.90
21559;DHT22;10940;48.890;8.240;2022-12-07T02:43:14;4.20;99.90
21559;DHT22;10940;48.890;8.240;2022-12-07T02:45:42;4.20;99.90
21559;DHT22;10940;48.890;8.240;2022-12-07T02:48:12;4.20;99.90
21559;DHT22;10940;48.890;8.240;2022-12-07T02:50:39;4.20;99.90
21559;DHT22;10940;48.890;8.240;2022-12-07T02:53:38;4.20;99.90
21559;DHT22;10940;48.890;8.240;2022-12-07T02:56:16;4.20;99.90
21559;DHT22;10940;48.890;8.240;2022-12-07T03:07:02;4.00;99.90
21559;DHT22;10940;48.890;8.240;2022-12-07T03:09:43;4.00;99.90
21559;DHT22;10940;48.890;8.240;2022-12-07T03:12:14;4.10;99.90
21559;DHT22;10940;48.890;8.240;2022-12-07T03:14:47;4.10;99.90
21559;DHT22;10940;48.890;8.240;2022-12-07T03:17:20;4.10;99.90
21559;DHT22;10940;48.890;8.240;2022-12-07T03:19:46;4.10;99.90
21559;DHT22;10940;48.890;8.240;2022-12-07T03:22:14;4.10;99.90
21559;DHT22;10940;48.890;8.240;2022-12-07T03:24:45;4.20;99.90
21559;DHT22;10940;48.890;8.240;2022-12-07T03:28:24;4.20;99.90
21559;DHT22;10940;48.890;8.240;2022-12-07T03:30:21;4.20;99.90
21559;DHT22;10940;48.890;8.240;2022-12-07T03:32:53;4.30;99.90
21559;DHT22;10940;48.890;8.240;2022-12-07T03:42:42;4.20;99.90
21559;DHT22;10940;48.890;8.240;2022-12-07T03:45:09;4.20;99.90
21559;DHT22;10940;48.890;8.240;2022-12-07T03:47:46;4.30;99.90
21559;DHT22;10940;48.890;8.240;2022-12-07T03:50:33;4.30;99.90
21559;DHT22;10940;48.890;8.240;2022-12-07T03:53:08;4.30;99.90
21559;DHT22;10940;48.890;8.240;2022-12-07T03:55:39;4.20;99.90
21559;DHT22;10940;48.890;8.240;2022-12-07T03:58:10;4.10;99.90
21559;DHT22;10940;48.890;8.240;2022-12-07T04:00:36;4.10;99.90
21559;DHT22;10940;48.890;8.240;2022-12-07T04:03:02;4.00;99.90
21559;DHT22;10940;48.890;8.240;2022-12-07T04:05:28;4.00;99.90
21559;DHT22;10940;48.890;8.240;2022-12-07T04:07:53;4.00;99.90
21559;DHT22;10940;48.890;8.240;2022-12-07T04:10:19;4.00;99.90
21559;DHT22;10940;48.890;8.240;2022-12-07T04:12:45;4.00;99.90
21559;DHT22;10940;48.890;8.240;2022-12-07T04:15:11;4.00;99.90
21559;DHT22;10940;48.890;8.240;2022-12-07T04:17:36;4.00;99.90
21559;DHT22;10940;48.890;8.240;2022-12-07T04:20:03;4.00;99.90
21559;DHT22;10940;48.890;8.240;2022-12-07T04:22:29;4.00;99.90
21559;DHT22;10940;48.890;8.240;2022-12-07T04:24:55;4.00;99.90
21559;DHT22;10940;48.890;8.240;2022-12-07T04:27:20;3.90;99.90
21559;DHT22;10940;48.890;8.240;2022-12-07T04:29:46;3.90;99.90
21559;DHT22;10940;48.890;8.240;2022-12-07T04:32:12;3.90;99.90
21559;DHT22;10940;48.890;8.240;2022-12-07T04:34:38;3.90;99.90
21559;DHT22;10940;48.890;8.240;2022-12-07T04:37:03;3.90;99.90
21559;DHT22;10940;48.890;8.240;2022-12-07T04:39:31;3.90;99.90
21559;DHT22;10940;48.890;8.240;2022-12-07T04:41:57;3.90;99.90
21559;DHT22;10940;48.890;8.240;2022-12-07T04:44:24;3.90;99.90
21559;DHT22;10940;48.890;8.240;2022-12-07T04:46:51;3.90;99.90
21559;DHT22;10940;48.890;8.240;2022-12-07T04:49:17;3.90;99.90
21559;DHT22;10940;48.890;8.240;2022-12-07T04:51:43;3.90;99.90
21559;DHT22;10940;48.890;8.240;2022-12-07T04:54:10;3.90;99.90
21559;DHT22;10940;48.890;8.240;2022-12-07T04:56:36;3.90;99.90
21559;DHT22;10940;48.890;8.240;2022-12-07T04:59:02;4.00;99.90
21559;DHT22;10940;48.890;8.240;2022-12-07T05:01:28;4.00;99.90
21559;DHT22;10940;48.890;8.240;2022-12-07T05:03:54;4.00;99.90
21559;DHT22;10940;48.890;8.240;2022-12-07T05:06:19;4.00;99.90
21559;DHT22;10940;48.890;8.240;2022-12-07T05:08:45;4.00;99.90
21559;DHT22;10940;48.890;8.240;2022-12-07T05:11:12;4.00;99.90
21559;DHT22;10940;48.890;8.240;2022-12-07T05:13:56;4.00;99.90
21559;DHT22;10940;48.890;8.240;2022-12-07T05:16:22;3.90;99.90
21559;DHT22;10940;48.890;8.240;2022-12-07T05:18:48;3.90;99.90
21559;DHT22;10940;48.890;8.240;2022-12-07T05:21:13;3.90;99.90
21559;DHT22;10940;48.890;8.240;2022-12-07T05:23:39;3.90;99.90
21559;DHT22;10940;48.890;8.240;2022-12-07T05:26:05;3.90;99.90
21559;DHT22;10940;48.890;8.240;2022-12-07T05:28:30;4.00;99.90
21559;DHT22;10940;48.890;8.240;2022-12-07T05:30:56;4.00;99.90
21559;DHT22;10940;48.890;8.240;2022-12-07T05:33:21;4.00;99.90
21559;DHT22;10940;48.890;8.240;2022-12-07T05:35:47;4.00;99.90
21559;DHT22;10940;48.890;8.240;2022-12-07T05:38:13;4.00;99.90
21559;DHT22;10940;48.890;8.240;2022-12-07T05:40:38;4.00;99.90
21559;DHT22;10940;48.890;8.240;2022-12-07T05:43:04;4.00;99.90
21559;DHT22;10940;48.890;8.240;2022-12-07T05:45:29;3.90;99.90
21559;DHT22;10940;48.890;8.240;2022-12-07T05:47:55;3.90;99.90
21559;DHT22;10940;48.890;8.240;2022-12-07T05:50:20;3.90;99.90
21559;DHT22;10940;48.890;8.240;2022-12-07T05:52:48;3.90;99.90
21559;DHT22;10940;48.890;8.240;2022-12-07T05:55:14;3.90;99.90
21559;DHT22;10940;48.890;8.240;2022-12-07T05:57:39;4.00;99.90
21559;DHT22;10940;48.890;8.240;2022-12-07T06:00:25;3.90;99.90
21559;DHT22;10940;48.890;8.240;2022-12-07T06:02:50;4.00;99.90
21559;DHT22;10940;48.890;8.240;2022-12-07T06:05:16;4.00;99.90
21559;DHT22;10940;48.890;8.240;2022-12-07T06:07:42;4.00;99.90
21559;DHT22;10940;48.890;8.240;2022-12-07T06:10:07;4.00;99.90
21559;DHT22;10940;48.890;8.240;2022-12-07T06:12:33;3.80;99.90
21559;DHT22;10940;48.890;8.240;2022-12-07T06:14:59;3.90;99.90
21559;DHT22;10940;48.890;8.240;2022-12-07T06:17:24;4.00;99.90
21559;DHT22;10940;48.890;8.240;2022-12-07T06:19:50;4.00;99.90
21559;DHT22;10940;48.890;8.240;2022-12-07T06:22:16;4.00;99.90
21559;DHT22;10940;48.890;8.240;2022-12-07T06:24:42;4.00;99.90
21559;DHT22;10940;48.890;8.240;2022-12-07T06:27:08;4.00;99.90
21559;DHT22;10940;48.890;8.240;2022-12-07T06:29:34;4.00;99.90
21559;DHT22;10940;48.890;8.240;2022-12-07T06:32:00;4.10;99.90
21559;DHT22;10940;48.890;8.240;2022-12-07T06:34:26;4.00;99.90
21559;DHT22;10940;48.890;8.240;2022-12-07T06:36:52;4.00;99.90
21559;DHT22;10940;48.890;8.240;2022-12-07T06:39:25;4.00;99.90
21559;DHT22;10940;48.890;8.240;2022-12-07T06:41:52;4.00;99.90
21559;DHT22;10940;48.890;8.240;2022-12-07T06:44:18;4.10;99.90
21559;DHT22;10940;48.890;8.240;2022-12-07T06:46:44;4.10;99.90
21559;DHT22;10940;48.890;8.240;2022-12-07T06:49:09;4.10;99.90
21559;DHT22;10940;48.890;8.240;2022-12-07T06:51:35;4.10;99.90
21559;DHT22;10940;48.890;8.240;2022-12-07T06:54:03;4.00;99.90
21559;DHT22;10940;48.890;8.240;2022-12-07T06:56:29;4.00;99.90
21559;DHT22;10940;48.890;8.240;2022-12-07T06:58:54;4.00;99.90
21559;DHT22;10940;48.890;8.240;2022-12-07T07:01:20;3.90;99.90
21559;DHT22;10940;48.890;8.240;2022-12-07T07:03:46;4.00;99.90
21559;DHT22;10940;48.890;8.240;2022-12-07T07:06:12;4.00;99.90
21559;DHT22;10940;48.890;8.240;2022-12-07T07:08:38;4.00;99.90
21559;DHT22;10940;48.890;8.240;2022-12-07T07:11:05;4.00;99.90
21559;DHT22;10940;48.890;8.240;2022-12-07T07:13:32;4.00;99.90
21559;DHT22;10940;48.890;8.240;2022-12-07T07:15:57;4.00;99.90
21559;DHT22;10940;48.890;8.240;2022-12-07T07:18:24;4.00;99.90
21559;DHT22;10940;48.890;8.240;2022-12-07T07:20:53;4.00;99.90
21559;DHT22;10940;48.890;8.240;2022-12-07T07:23:19;4.00;99.90
21559;DHT22;10940;48.890;8.240;2022-12-07T07:25:46;4.00;99.90
21559;DHT22;10940;48.890;8.240;2022-12-07T07:28:12;4.00;99.90
21559;DHT22;10940;48.890;8.240;2022-12-07T07:30:37;4.10;99.90
21559;DHT22;10940;48.890;8.240;2022-12-07T07:33:04;4.10;99.90
21559;DHT22;10940;48.890;8.240;2022-12-07T07:35:32;4.10;99.90
21559;DHT22;10940;48.890;8.240;2022-12-07T07:37:59;4.10;99.90
21559;DHT22;10940;48.890;8.240;2022-12-07T07:40:25;4.10;99.90
21559;DHT22;10940;48.890;8.240;2022-12-07T07:42:52;4.10;99.90
21559;DHT22;10940;48.890;8.240;2022-12-07T07:45:19;4.10;99.90
21559;DHT22;10940;48.890;8.240;2022-12-07T07:47:45;4.10;99.90
21559;DHT22;10940;48.890;8.240;2022-12-07T07:50:11;4.20;99.90
21559;DHT22;10940;48.890;8.240;2022-12-07T07:52:36;4.10;99.90
21559;DHT22;10940;48.890;8.240;2022-12-07T07:55:02;4.20;99.90
21559;DHT22;10940;48.890;8.240;2022-12-07T07:57:28;4.20;99.90
21559;DHT22;10940;48.890;8.240;2022-12-07T07:59:54;4.20;99.90
21559;DHT22;10940;48.890;8.240;2022-12-07T08:02:20;4.20;99.90
21559;DHT22;10940;48.890;8.240;2022-12-07T08:04:46;4.20;99.90
21559;DHT22;10940;48.890;8.240;2022-12-07T08:07:12;4.20;99.90
21559;DHT22;10940;48.890;8.240;2022-12-07T08:09:39;4.30;99.90
21559;DHT22;10940;48.890;8.240;2022-12-07T08:12:05;4.20;99.90
21559;DHT22;10940;48.890;8.240;2022-12-07T08:14:31;4.20;99.90
21559;DHT22;10940;48.890;8.240;2022-12-07T08:16:56;4.30;99.90
21559;DHT22;10940;48.890;8.240;2022-12-07T08:19:22;4.30;99.90
21559;DHT22;10940;48.890;8.240;2022-12-07T08:21:48;4.30;99.90
21559;DHT22;10940;48.890;8.240;2022-12-07T08:24:13;4.30;99.90
21559;DHT22;10940;48.890;8.240;2022-12-07T08:26:39;4.30;99.90
21559;DHT22;10940;48.890;8.240;2022-12-07T08:29:05;4.30;99.90
21559;DHT22;10940;48.890;8.240;2022-12-07T08:31:31;4.30;99.90
21559;DHT22;10940;48.890;8.240;2022-12-07T08:33:57;4.30;99.90
21559;DHT22;10940;48.890;8.240;2022-12-07T08:36:22;4.30;99.90
21559;DHT22;10940;48.890;8.240;2022-12-07T08:38:49;4.40;99.90
21559;DHT22;10940;48.890;8.240;2022-12-07T08:41:15;4.40;99.90
21559;DHT22;10940;48.890;8.240;2022-12-07T08:43:41;4.40;99.90
21559;DHT22;10940;48.890;8.240;2022-12-07T08:46:15;4.40;99.90
21559;DHT22;10940;48.890;8.240;2022-12-07T08:48:49;4.40;99.90
21559;DHT22;10940;48.890;8.240;2022-12-07T08:51:16;4.40;99.90
21559;DHT22;10940;48.890;8.240;2022-12-07T08:53:42;4.40;99.90
21559;DHT22;10940;48.890;8.240;2022-12-07T08:56:09;4.50;99.90
21559;DHT22;10940;48.890;8.240;2022-12-07T08:58:36;4.50;99.90
21559;DHT22;10940;48.890;8.240;2022-12-07T09:01:03;4.50;99.90
21559;DHT22;10940;48.890;8.240;2022-12-07T09:03:29;4.50;99.90
21559;DHT22;10940;48.890;8.240;2022-12-07T09:05:54;4.60;99.90
21559;DHT22;10940;48.890;8.240;2022-12-07T09:08:22;4.60;99.90
21559;DHT22;10940;48.890;8.240;2022-12-07T09:10:51;4.50;99.90
21559;DHT22;10940;48.890;8.240;2022-12-07T09:13:16;4.60;99.90
21559;DHT22;10940;48.890;8.240;2022-12-07T09:15:42;4.60;99.90
21559;DHT22;10940;48.890;8.240;2022-12-07T09:18:07;4.50;99.90
21559;DHT22;10940;48.890;8.240;2022-12-07T09:20:33;4.60;99.90
21559;DHT22;10940;48.890;8.240;2022-12-07T09:22:59;4.60;99.90
21559;DHT22;10940;48.890;8.240;2022-12-07T09:25:24;4.60;99.90
21559;DHT22;10940;48.890;8.240;2022-12-07T09:27:57;4.60;99.90
21559;DHT22;10940;48.890;8.240;2022-12-07T09:30:24;4.50;99.90
21559;DHT22;10940;48.890;8.240;2022-12-07T09:32:49;4.50;99.90
21559;DHT22;10940;48.890;8.240;2022-12-07T09:35:15;4.50;99.90
21559;DHT22;10940;48.890;8.240;2022-12-07T09:37:40;4.60;99.90
21559;DHT22;10940;48.890;8.240;2022-12-07T09:40:07;4.60;99.90
21559;DHT22;10940;48.890;8.240;2022-12-07T09:42:38;4.60;99.90
21559;DHT22;10940;48.890;8.240;2022-12-07T09:45:24;4.60;99.90
21559;DHT22;10940;48.890;8.240;2022-12-07T09:47:50;4.50;99.90
21559;DHT22;10940;48.890;8.240;2022-12-07T09:50:23;4.60;99.90
21559;DHT22;10940;48.890;8.240;2022-12-07T09:52:50;4.60;99.90
21559;DHT22;10940;48.890;8.240;2022-12-07T09:55:24;4.60;99.90
21559;DHT22;10940;48.890;8.240;2022-12-07T09:57:52;4.60;99.90
21559;DHT22;10940;48.890;8.240;2022-12-07T10:00:19;4.60;99.90
21559;DHT22;10940;48.890;8.240;2022-12-07T10:02:57;4.70;99.90
21559;DHT22;10940;48.890;8.240;2022-12-07T10:05:29;4.70;99.90
21559;DHT22;10940;48.890;8.240;2022-12-07T10:07:56;4.70;99.90
21559;DHT22;10940;48.890;8.240;2022-12-07T10:10:40;4.80;99.90
21559;DHT22;10940;48.890;8.240;2022-12-07T10:13:12;4.70;99.90
21559;DHT22;10940;48.890;8.240;2022-12-07T10:15:48;4.80;99.90
21559;DHT22;10940;48.890;8.240;2022-12-07T10:23:35;4.80;99.90
21559;DHT22;10940;48.890;8.240;2022-12-07T10:26:35;4.80;99.90
21559;DHT22;10940;48.890;8.240;2022-12-07T10:29:15;4.90;99.90
21559;DHT22;10940;48.890;8.240;2022-12-07T10:31:42;4.90;99.90
21559;DHT22;10940;48.890;8.240;2022-12-07T10:34:30;4.90;99.90
21559;DHT22;10940;48.890;8.240;2022-12-07T10:39:52;5.00;99.90
21559;DHT22;10940;48.890;8.240;2022-12-07T10:42:27;5.00;99.90
21559;DHT22;10940;48.890;8.240;2022-12-07T10:58:48;5.20;99.90
21559;DHT22;10940;48.890;8.240;2022-12-07T11:10:18;5.30;99.90
21559;DHT22;10940;48.890;8.240;2022-12-07T11:18:14;5.30;99.90
21559;DHT22;10940;48.890;8.240;2022-12-07T11:32:22;5.30;99.90
21559;DHT22;10940;48.890;8.240;2022-12-07T11:35:22;5.30;99.90
21559;DHT22;10940;48.890;8.240;2022-12-07T11:37:51;5.30;99.90
21559;DHT22;10940;48.890;8.240;2022-12-07T11:40:33;5.30;99.90
21559;DHT22;10940;48.890;8.240;2022-12-07T11:43:16;5.30;99.90
21559;DHT22;10940;48.890;8.240;2022-12-07T11:45:46;5.30;99.90
21559;DHT22;10940;48.890;8.240;2022-12-07T11:48:17;5.30;99.90
21559;DHT22;10940;48.890;8.240;2022-12-07T11:50:56;5.30;99.90
21559;DHT22;10940;48.890;8.240;2022-12-07T11:56:13;5.20;99.90
21559;DHT22;10940;48.890;8.240;2022-12-07T11:59:10;5.20;99.90
21559;DHT22;10940;48.890;8.240;2022-12-07T12:06:40;5.20;99.90
21559;DHT22;10940;48.890;8.240;2022-12-07T12:09:19;5.30;99.90
21559;DHT22;10940;48.890;8.240;2022-12-07T12:11:56;5.20;99.90
21559;DHT22;10940;48.890;8.240;2022-12-07T12:14:40;5.20;99.90
21559;DHT22;10940;48.890;8.240;2022-12-07T12:23:24;5.20;99.90
21559;DHT22;10940;48.890;8.240;2022-12-07T12:25:56;5.30;99.90
21559;DHT22;10940;48.890;8.240;2022-12-07T12:31:11;5.40;99.90
21559;DHT22;10940;48.890;8.240;2022-12-07T12:33:38;5.40;99.90
21559;DHT22;10940;48.890;8.240;2022-12-07T12:46:52;5.50;99.90
21559;DHT22;10940;48.890;8.240;2022-12-07T13:01:43;5.40;99.90
21559;DHT22;10940;48.890;8.240;2022-12-07T13:04:24;5.40;99.90
21559;DHT22;10940;48.890;8.240;2022-12-07T13:06:51;5.40;99.90
21559;DHT22;10940;48.890;8.240;2022-12-07T13:09:26;5.40;99.90
21559;DHT22;10940;48.890;8.240;2022-12-07T13:12:00;5.40;99.90
21559;DHT22;10940;48.890;8.240;2022-12-07T13:19:59;5.30;99.90
21559;DHT22;10940;48.890;8.240;2022-12-07T13:25:10;5.30;99.90
21559;DHT22;10940;48.890;8.240;2022-12-07T13:27:38;5.30;99.90
21559;DHT22;10940;48.890;8.240;2022-12-07T13:30:17;5.30;99.90
21559;DHT22;10940;48.890;8.240;2022-12-07T13:32:43;5.30;99.90
21559;DHT22;10940;48.890;8.240;2022-12-07T13:37:54;5.20;99.90
21559;DHT22;10940;48.890;8.240;2022-12-07T13:40:22;5.20;99.90
21559;DHT22;10940;48.890;8.240;2022-12-07T13:42:48;5.20;99.90
21559;DHT22;10940;48.890;8.240;2022-12-07T13:45:25;5.20;99.90
21559;DHT22;10940;48.890;8.240;2022-12-07T13:48:48;5.30;99.90
21559;DHT22;10940;48.890;8.240;2022-12-07T13:53:48;5.20;99.90
21559;DHT22;10940;48.890;8.240;2022-12-07T13:56:14;5.20;99.90
21559;DHT22;10940;48.890;8.240;2022-12-07T13:58:41;5.30;99.90
21559;DHT22;10940;48.890;8.240;2022-12-07T14:01:07;5.30;99.90
21559;DHT22;10940;48.890;8.240;2022-12-07T14:03:34;5.30;99.90
21559;DHT22;10940;48.890;8.240;2022-12-07T14:06:07;5.30;99.90
21559;DHT22;10940;48.890;8.240;2022-12-07T14:08:33;5.30;99.90
21559;DHT22;10940;48.890;8.240;2022-12-07T14:10:59;5.30;99.90
21559;DHT22;10940;48.890;8.240;2022-12-07T14:13:37;5.30;99.90
21559;DHT22;10940;48.890;8.240;2022-12-07T14:16:18;5.30;99.90
21559;DHT22;10940;48.890;8.240;2022-12-07T14:18:47;5.30;99.90
21559;DHT22;10940;48.890;8.240;2022-12-07T14:23:40;5.30;99.90
21559;DHT22;10940;48.890;8.240;2022-12-07T14:26:19;5.30;99.90
21559;DHT22;10940;48.890;8.240;2022-12-07T14:28:46;5.30;99.90
21559;DHT22;10940;48.890;8.240;2022-12-07T14:31:22;5.30;99.90
21559;DHT22;10940;48.890;8.240;2022-12-07T14:33:49;5.40;99.90
21559;DHT22;10940;48.890;8.240;2022-12-07T14:36:15;5.30;99.90
21559;DHT22;10940;48.890;8.240;2022-12-07T14:38:41;5.30;99.90
21559;DHT22;10940;48.890;8.240;2022-12-07T14:41:14;5.30;99.90
21559;DHT22;10940;48.890;8.240;2022-12-07T14:43:59;5.30;99.90
21559;DHT22;10940;48.890;8.240;2022-12-07T14:46:24;5.30;99.90
21559;DHT22;10940;48.890;8.240;2022-12-07T14:48:50;5.30;99.90
21559;DHT22;10940;48.890;8.240;2022-12-07T14:51:16;5.30;99.90
21559;DHT22;10940;48.890;8.240;2022-12-07T14:53:48;5.30;99.90
21559;DHT22;10940;48.890;8.240;2022-12-07T14:56:14;5.20;99.90
21559;DHT22;10940;48.890;8.240;2022-12-07T14:58:40;5.20;99.90
21559;DHT22;10940;48.890;8.240;2022-12-07T15:01:06;5.20;99.90
21559;DHT22;10940;48.890;8.240;2022-12-07T15:03:31;5.20;99.90
21559;DHT22;10940;48.890;8.240;2022-12-07T15:05:57;5.10;99.90
21559;DHT22;10940;48.890;8.240;2022-12-07T15:08:23;5.10;99.90
21559;DHT22;10940;48.890;8.240;2022-12-07T15:10:48;5.10;99.90
21559;DHT22;10940;48.890;8.240;2022-12-07T15:13:14;5.10;99.90
21559;DHT22;10940;48.890;8.240;2022-12-07T15:15:58;5.10;99.90
21559;DHT22;10940;48.890;8.240;2022-12-07T15:18:24;5.10;99.90
21559;DHT22;10940;48.890;8.240;2022-12-07T15:20:50;5.10;99.90
21559;DHT22;10940;48.890;8.240;2022-12-07T15:23:16;5.00;99.90
21559;DHT22;10940;48.890;8.240;2022-12-07T15:25:43;5.00;99.90
21559;DHT22;10940;48.890;8.240;2022-12-07T15:28:09;5.00;99.90
21559;DHT22;10940;48.890;8.240;2022-12-07T15:30:37;5.10;99.90
21559;DHT22;10940;48.890;8.240;2022-12-07T15:33:02;5.00;99.90
21559;DHT22;10940;48.890;8.240;2022-12-07T15:35:28;5.00;99.90
21559;DHT22;10940;48.890;8.240;2022-12-07T15:37:53;4.90;99.90
21559;DHT22;10940;48.890;8.240;2022-12-07T15:40:19;5.10;99.90
21559;DHT22;10940;48.890;8.240;2022-12-07T15:42:44;5.10;99.90
21559;DHT22;10940;48.890;8.240;2022-12-07T15:45:11;5.00;99.90
21559;DHT22;10940;48.890;8.240;2022-12-07T15:47:40;5.00;99.90
21559;DHT22;10940;48.890;8.240;2022-12-07T15:50:09;5.00;99.90
21559;DHT22;10940;48.890;8.240;2022-12-07T15:52:35;5.10;99.90
21559;DHT22;10940;48.890;8.240;2022-12-07T15:55:02;5.10;99.90
21559;DHT22;10940;48.890;8.240;2022-12-07T15:57:29;5.10;99.90
21559;DHT22;10940;48.890;8.240;2022-12-07T15:59:55;5.10;99.90
21559;DHT22;10940;48.890;8.240;2022-12-07T16:02:21;5.10;99.90
21559;DHT22;10940;48.890;8.240;2022-12-07T16:04:47;5.10;99.90
21559;DHT22;10940;48.890;8.240;2022-12-07T16:07:13;5.10;99.90
21559;DHT22;10940;48.890;8.240;2022-12-07T16:09:41;5.00;99.90
21559;DHT22;10940;48.890;8.240;2022-12-07T16:12:07;5.00;99.90
21559;DHT22;10940;48.890;8.240;2022-12-07T16:14:33;5.00;99.90
21559;DHT22;10940;48.890;8.240;2022-12-07T16:16:59;5.00;99.90
21559;DHT22;10940;48.890;8.240;2022-12-07T16:19:24;5.00;99.90
21559;DHT22;10940;48.890;8.240;2022-12-07T16:21:50;4.90;99.90
21559;DHT22;10940;48.890;8.240;2022-12-07T16:24:16;5.00;99.90
21559;DHT22;10940;48.890;8.240;2022-12-07T16:26:42;5.00;99.90
21559;DHT22;10940;48.890;8.240;2022-12-07T16:29:11;5.00;99.90
21559;DHT22;10940;48.890;8.240;2022-12-07T16:31:37;5.00;99.90
21559;DHT22;10940;48.890;8.240;2022-12-07T16:34:03;4.90;99.90
21559;DHT22;10940;48.890;8.240;2022-12-07T16:36:28;5.00;99.90
21559;DHT22;10940;48.890;8.240;2022-12-07T16:38:54;5.00;99.90
21559;DHT22;10940;48.890;8.240;2022-12-07T16:41:20;5.00;99.90
21559;DHT22;10940;48.890;8.240;2022-12-07T16:43:46;4.90;99.90
21559;DHT22;10940;48.890;8.240;2022-12-07T16:46:12;5.00;99.90
21559;DHT22;10940;48.890;8.240;2022-12-07T16:48:39;5.00;99.90
21559;DHT22;10940;48.890;8.240;2022-12-07T16:51:06;5.00;99.90
21559;DHT22;10940;48.890;8.240;2022-12-07T16:53:34;5.00;99.90
21559;DHT22;10940;48.890;8.240;2022-12-07T16:56:01;5.00;99.90
21559;DHT22;10940;48.890;8.240;2022-12-07T16:58:26;5.00;99.90
21559;DHT22;10940;48.890;8.240;2022-12-07T17:00:52;5.00;99.90
21559;DHT22;10940;48.890;8.240;2022-12-07T17:03:17;4.90;99.90
21559;DHT22;10940;48.890;8.240;2022-12-07T17:05:44;5.00;99.90
21559;DHT22;10940;48.890;8.240;2022-12-07T17:08:11;5.00;99.90
21559;DHT22;10940;48.890;8.240;2022-12-07T17:10:39;5.00;99.90
21559;DHT22;10940;48.890;8.240;2022-12-07T17:13:06;5.00;99.90
21559;DHT22;10940;48.890;8.240;2022-12-07T17:16:02;5.00;99.90
21559;DHT22;10940;48.890;8.240;2022-12-07T17:18:30;5.00;99.90
21559;DHT22;10940;48.890;8.240;2022-12-07T17:21:08;5.00;99.90
21559;DHT22;10940;48.890;8.240;2022-12-07T17:23:35;4.90;99.90
21559;DHT22;10940;48.890;8.240;2022-12-07T17:26:09;4.90;99.90
21559;DHT22;10940;48.890;8.240;2022-12-07T17:28:36;4.90;99.90
21559;DHT22;10940;48.890;8.240;2022-12-07T17:31:05;4.90;99.90
21559;DHT22;10940;48.890;8.240;2022-12-07T17:33:31;4.90;99.90
21559;DHT22;10940;48.890;8.240;2022-12-07T17:35:57;4.90;99.90
21559;DHT22;10940;48.890;8.240;2022-12-07T17:38:22;4.90;99.90
21559;DHT22;10940;48.890;8.240;2022-12-07T17:40:48;4.80;99.90
21559;DHT22;10940;48.890;8.240;2022-12-07T17:43:13;4.80;99.90
21559;DHT22;10940;48.890;8.240;2022-12-07T17:45:39;4.80;99.90
21559;DHT22;10940;48.890;8.240;2022-12-07T17:48:05;4.80;99.90
21559;DHT22;10940;48.890;8.240;2022-12-07T17:50:30;4.70;99.90
21559;DHT22;10940;48.890;8.240;2022-12-07T17:53:15;4.70;99.90
21559;DHT22;10940;48.890;8.240;2022-12-07T17:55:40;4.60;99.90
21559;DHT22;10940;48.890;8.240;2022-12-07T17:58:06;4.60;99.90
21559;DHT22;10940;48.890;8.240;2022-12-07T18:00:32;4.50;99.90
21559;DHT22;10940;48.890;8.240;2022-12-07T18:03:04;4.50;99.90
21559;DHT22;10940;48.890;8.240;2022-12-07T18:05:37;4.50;99.90
21559;DHT22;10940;48.890;8.240;2022-12-07T18:08:04;4.40;99.90
21559;DHT22;10940;48.890;8.240;2022-12-07T18:10:30;4.40;99.90
21559;DHT22;10940;48.890;8.240;2022-12-07T18:12:56;4.30;99.90
21559;DHT22;10940;48.890;8.240;2022-12-07T18:15:41;4.30;99.90